sensor_id;sensor_type;location;lat;lon;timestamp;P1;durP1;ratioP1;P2;durP2;ratioP2
26163;SDS011;13914;48.178;11.716;2023-03-01T00:00:38;21.73;;;13.10;;
26163;SDS011;13914;48.178;11.716;2023-03-01T00:03:04;24.08;;;13.50;;
26163;SDS011;13914;48.178;11.716;2023-03-01T00:05:30;16.75;;;8.38;;
26163;SDS011;13914;48.178;11.716;2023-03-01T00:07:57;25.98;;;12.82;;
26163;SDS011;13914;48.178;11.716;2023-03-01T00:10:23;28.90;;;14.15;;
26163;SDS011;13914;48.178;11.716;2023-03-01T00:12:49;26.52;;;12.80;;
26163;SDS011;13914;48.178;11.716;2023-03-01T00:15:15;17.13;;;8.50;;
26163;SDS011;13914;48.178;11.716;2023-03-01T00:17:40;29.85;;;11.75;;
26163;SDS011;13914;48.178;11.716;2023-03-01T00:20:07;31.05;;;15.40;;
26163;SDS011;13914;48.178;11.716;2023-03-01T00:22:35;24.88;;;11.20;;
26163;SDS011;13914;48.178;11.716;2023-03-01T00:25:02;25.92;;;13.30;;
26163;SDS011;13914;48.178;11.716;2023-03-01T00:27:28;22.38;;;13.05;;
26163;SDS011;13914;48.178;11.716;2023-03-01T00:29:54;26.00;;;14.27;;
26163;SDS011;13914;48.178;11.716;2023-03-01T00:32:20;28.92;;;14.13;;
26163;SDS011;13914;48.178;11.716;2023-03-01T00:34:46;28.65;;;15.70;;
26163;SDS011;13914;48.178;11.716;2023-03-01T00:37:19;28.58;;;15.25;;
26163;SDS011;13914;48.178;11.716;2023-03-01T00:39:47;27.05;;;13.32;;
26163;SDS011;13914;48.178;11.716;2023-03-01T00:42:13;30.05;;;14.75;;
26163;SDS011;13914;48.178;11.716;2023-03-01T00:44:38;25.77;;;13.65;;
26163;SDS011;13914;48.178;11.716;2023-03-01T00:47:04;27.33;;;14.07;;
26163;SDS011;13914;48.178;11.716;2023-03-01T00:49:30;31.00;;;15.70;;
26163;SDS011;13914;48.178;11.716;2023-03-01T00:51:56;27.20;;;15.02;;
26163;SDS011;13914;48.178;11.716;2023-03-01T00:54:22;28.45;;;15.15;;
26163;SDS011;13914;48.178;11.716;2023-03-01T00:56:47;27.88;;;14.48;;
26163;SDS011;13914;48.178;11.716;2023-03-01T00:59:13;32.53;;;15.52;;
26163;SDS011;13914;48.178;11.716;2023-03-01T01:01:39;20.23;;;11.45;;
26163;SDS011;13914;48.178;11.716;2023-03-01T01:04:06;24.48;;;11.70;;
26163;SDS011;13914;48.178;11.716;2023-03-01T01:06:36;29.23;;;14.90;;
26163;SDS011;13914;48.178;11.716;2023-03-01T01:09:05;30.52;;;13.45;;
26163;SDS011;13914;48.178;11.716;2023-03-01T01:11:33;27.70;;;14.38;;
26163;SDS011;13914;48.178;11.716;2023-03-01T01:14:00;31.20;;;14.93;;
26163;SDS011;13914;48.178;11.716;2023-03-01T01:16:26;28.00;;;15.10;;
26163;SDS011;13914;48.178;11.716;2023-03-01T01:18:54;31.83;;;16.38;;
26163;SDS011;13914;48.178;11.716;2023-03-01T01:21:22;29.67;;;15.57;;
26163;SDS011;13914;48.178;11.716;2023-03-01T01:23:49;29.70;;;15.35;;
26163;SDS011;13914;48.178;11.716;2023-03-01T01:26:17;30.08;;;14.60;;
26163;SDS011;13914;48.178;11.716;2023-03-01T01:28:50;24.33;;;13.43;;
26163;SDS011;13914;48.178;11.716;2023-03-01T01:31:16;32.08;;;15.55;;
26163;SDS011;13914;48.178;11.716;2023-03-01T01:33:43;31.27;;;15.45;;
26163;SDS011;13914;48.178;11.716;2023-03-01T01:36:09;31.05;;;14.90;;
26163;SDS011;13914;48.178;11.716;2023-03-01T01:38:36;26.10;;;15.07;;
26163;SDS011;13914;48.178;11.716;2023-03-01T01:41:03;17.70;;;9.23;;
26163;SDS011;13914;48.178;11.716;2023-03-01T01:43:32;28.42;;;14.85;;
26163;SDS011;13914;48.178;11.716;2023-03-01T01:46:05;25.67;;;14.02;;
26163;SDS011;13914;48.178;11.716;2023-03-01T01:51:31;27.02;;;13.60;;
26163;SDS011;13914;48.178;11.716;2023-03-01T01:54:09;31.25;;;13.57;;
26163;SDS011;13914;48.178;11.716;2023-03-01T01:56:48;27.40;;;14.18;;
26163;SDS011;13914;48.178;11.716;2023-03-01T01:59:23;25.52;;;14.00;;
26163;SDS011;13914;48.178;11.716;2023-03-01T02:04:17;18.95;;;9.80;;
26163;SDS011;13914;48.178;11.716;2023-03-01T02:06:48;27.77;;;13.88;;
26163;SDS011;13914;48.178;11.716;2023-03-01T02:09:24;26.92;;;13.75;;
26163;SDS011;13914;48.178;11.716;2023-03-01T02:11:51;19.15;;;10.55;;
26163;SDS011;13914;48.178;11.716;2023-03-01T02:14:18;25.85;;;12.32;;
26163;SDS011;13914;48.178;11.716;2023-03-01T02:16:44;30.05;;;15.65;;
26163;SDS011;13914;48.178;11.716;2023-03-01T02:19:17;27.58;;;15.10;;
26163;SDS011;13914;48.178;11.716;2023-03-01T02:22:33;26.42;;;15.05;;
26163;SDS011;13914;48.178;11.716;2023-03-01T02:27:49;24.13;;;12.27;;
26163;SDS011;13914;48.178;11.716;2023-03-01T02:30:30;24.95;;;11.52;;
26163;SDS011;13914;48.178;11.716;2023-03-01T02:32:57;26.50;;;13.63;;
26163;SDS011;13914;48.178;11.716;2023-03-01T02:35:28;30.80;;;13.35;;
26163;SDS011;13914;48.178;11.716;2023-03-01T02:37:58;31.85;;;15.70;;
26163;SDS011;13914;48.178;11.716;2023-03-01T02:40:27;24.85;;;13.68;;
26163;SDS011;13914;48.178;11.716;2023-03-01T02:42:56;22.50;;;12.00;;
26163;SDS011;13914;48.178;11.716;2023-03-01T02:45:24;25.95;;;14.88;;
26163;SDS011;13914;48.178;11.716;2023-03-01T02:47:54;30.95;;;16.25;;
26163;SDS011;13914;48.178;11.716;2023-03-01T02:55:42;28.10;;;15.02;;
26163;SDS011;13914;48.178;11.716;2023-03-01T02:58:08;30.80;;;15.73;;
26163;SDS011;13914;48.178;11.716;2023-03-01T03:00:35;26.90;;;14.60;;
26163;SDS011;13914;48.178;11.716;2023-03-01T03:03:05;23.50;;;12.07;;
26163;SDS011;13914;48.178;11.716;2023-03-01T03:05:32;16.80;;;7.97;;
26163;SDS011;13914;48.178;11.716;2023-03-01T03:07:59;26.33;;;15.55;;
26163;SDS011;13914;48.178;11.716;2023-03-01T03:10:28;27.30;;;14.75;;
26163;SDS011;13914;48.178;11.716;2023-03-01T03:12:58;32.10;;;15.80;;
26163;SDS011;13914;48.178;11.716;2023-03-01T03:15:33;31.07;;;15.77;;
26163;SDS011;13914;48.178;11.716;2023-03-01T03:18:01;28.63;;;15.60;;
26163;SDS011;13914;48.178;11.716;2023-03-01T03:20:29;16.75;;;9.77;;
26163;SDS011;13914;48.178;11.716;2023-03-01T03:22:56;27.92;;;13.27;;
26163;SDS011;13914;48.178;11.716;2023-03-01T03:25:26;28.15;;;15.63;;
26163;SDS011;13914;48.178;11.716;2023-03-01T03:27:54;27.25;;;15.25;;
26163;SDS011;13914;48.178;11.716;2023-03-01T03:30:25;29.73;;;15.68;;
26163;SDS011;13914;48.178;11.716;2023-03-01T03:32:54;29.15;;;13.13;;
26163;SDS011;13914;48.178;11.716;2023-03-01T03:35:23;29.77;;;15.80;;
26163;SDS011;13914;48.178;11.716;2023-03-01T03:37:55;27.10;;;15.23;;
26163;SDS011;13914;48.178;11.716;2023-03-01T03:42:56;31.50;;;16.10;;
26163;SDS011;13914;48.178;11.716;2023-03-01T03:45:22;27.92;;;15.63;;
26163;SDS011;13914;48.178;11.716;2023-03-01T03:47:47;28.90;;;14.98;;
26163;SDS011;13914;48.178;11.716;2023-03-01T03:50:14;21.88;;;11.95;;
26163;SDS011;13914;48.178;11.716;2023-03-01T03:52:41;30.55;;;15.70;;
26163;SDS011;13914;48.178;11.716;2023-03-01T03:55:08;27.80;;;15.77;;
26163;SDS011;13914;48.178;11.716;2023-03-01T03:57:37;30.15;;;15.25;;
26163;SDS011;13914;48.178;11.716;2023-03-01T04:00:05;32.58;;;16.25;;
26163;SDS011;13914;48.178;11.716;2023-03-01T04:02:43;26.70;;;15.65;;
26163;SDS011;13914;48.178;11.716;2023-03-01T04:05:11;29.00;;;15.07;;
26163;SDS011;13914;48.178;11.716;2023-03-01T04:07:40;24.85;;;14.65;;
26163;SDS011;13914;48.178;11.716;2023-03-01T04:10:10;19.50;;;9.98;;
26163;SDS011;13914;48.178;11.716;2023-03-01T04:12:43;23.70;;;13.18;;
26163;SDS011;13914;48.178;11.716;2023-03-01T04:15:09;26.20;;;14.77;;
26163;SDS011;13914;48.178;11.716;2023-03-01T04:17:43;29.27;;;16.02;;
26163;SDS011;13914;48.178;11.716;2023-03-01T04:20:11;28.27;;;14.70;;
26163;SDS011;13914;48.178;11.716;2023-03-01T04:22:43;24.90;;;14.63;;
26163;SDS011;13914;48.178;11.716;2023-03-01T04:25:13;28.55;;;15.27;;
26163;SDS011;13914;48.178;11.716;2023-03-01T04:27:39;26.05;;;12.82;;
26163;SDS011;13914;48.178;11.716;2023-03-01T04:30:06;21.63;;;10.35;;
26163;SDS011;13914;48.178;11.716;2023-03-01T04:32:33;28.35;;;13.90;;
26163;SDS011;13914;48.178;11.716;2023-03-01T04:34:58;20.73;;;10.40;;
26163;SDS011;13914;48.178;11.716;2023-03-01T04:37:25;33.75;;;15.45;;
26163;SDS011;13914;48.178;11.716;2023-03-01T04:42:17;29.00;;;14.90;;
26163;SDS011;13914;48.178;11.716;2023-03-01T04:44:44;24.83;;;13.80;;
26163;SDS011;13914;48.178;11.716;2023-03-01T04:47:11;20.05;;;9.32;;
26163;SDS011;13914;48.178;11.716;2023-03-01T04:49:38;27.98;;;14.55;;
26163;SDS011;13914;48.178;11.716;2023-03-01T04:52:04;29.35;;;14.43;;
26163;SDS011;13914;48.178;11.716;2023-03-01T04:54:31;26.33;;;14.05;;
26163;SDS011;13914;48.178;11.716;2023-03-01T04:56:59;27.38;;;15.23;;
26163;SDS011;13914;48.178;11.716;2023-03-01T04:59:26;32.78;;;15.63;;
26163;SDS011;13914;48.178;11.716;2023-03-01T05:01:53;26.25;;;13.63;;
26163;SDS011;13914;48.178;11.716;2023-03-01T05:04:20;29.30;;;14.63;;
26163;SDS011;13914;48.178;11.716;2023-03-01T05:06:50;33.67;;;16.27;;
26163;SDS011;13914;48.178;11.716;2023-03-01T05:09:18;33.00;;;16.38;;
26163;SDS011;13914;48.178;11.716;2023-03-01T05:11:44;30.40;;;15.30;;
26163;SDS011;13914;48.178;11.716;2023-03-01T05:14:11;33.17;;;15.23;;
26163;SDS011;13914;48.178;11.716;2023-03-01T05:16:37;30.02;;;15.07;;
26163;SDS011;13914;48.178;11.716;2023-03-01T05:19:03;25.83;;;14.63;;
26163;SDS011;13914;48.178;11.716;2023-03-01T05:21:37;26.73;;;14.32;;
26163;SDS011;13914;48.178;11.716;2023-03-01T05:24:26;28.80;;;14.57;;
26163;SDS011;13914;48.178;11.716;2023-03-01T05:26:54;30.30;;;14.20;;
26163;SDS011;13914;48.178;11.716;2023-03-01T05:29:21;30.48;;;13.40;;
26163;SDS011;13914;48.178;11.716;2023-03-01T05:31:53;27.67;;;14.93;;
26163;SDS011;13914;48.178;11.716;2023-03-01T05:34:28;28.02;;;15.60;;
26163;SDS011;13914;48.178;11.716;2023-03-01T05:36:57;32.42;;;14.75;;
26163;SDS011;13914;48.178;11.716;2023-03-01T05:39:24;27.95;;;14.45;;
26163;SDS011;13914;48.178;11.716;2023-03-01T05:41:51;29.80;;;14.27;;
26163;SDS011;13914;48.178;11.716;2023-03-01T05:44:19;27.85;;;14.52;;
26163;SDS011;13914;48.178;11.716;2023-03-01T05:46:46;29.02;;;15.20;;
26163;SDS011;13914;48.178;11.716;2023-03-01T05:49:12;32.33;;;15.35;;
26163;SDS011;13914;48.178;11.716;2023-03-01T05:51:39;32.22;;;15.18;;
26163;SDS011;13914;48.178;11.716;2023-03-01T05:54:06;32.20;;;15.63;;
26163;SDS011;13914;48.178;11.716;2023-03-01T05:56:33;29.00;;;14.77;;
26163;SDS011;13914;48.178;11.716;2023-03-01T05:59:01;27.75;;;16.08;;
26163;SDS011;13914;48.178;11.716;2023-03-01T06:01:29;29.45;;;14.65;;
26163;SDS011;13914;48.178;11.716;2023-03-01T06:03:57;26.65;;;13.88;;
26163;SDS011;13914;48.178;11.716;2023-03-01T06:06:23;24.92;;;14.13;;
26163;SDS011;13914;48.178;11.716;2023-03-01T06:08:49;28.38;;;14.05;;
26163;SDS011;13914;48.178;11.716;2023-03-01T06:11:16;27.23;;;14.77;;
26163;SDS011;13914;48.178;11.716;2023-03-01T06:13:42;34.83;;;16.20;;
26163;SDS011;13914;48.178;11.716;2023-03-01T06:16:10;30.90;;;15.55;;
26163;SDS011;13914;48.178;11.716;2023-03-01T06:18:37;28.15;;;13.88;;
26163;SDS011;13914;48.178;11.716;2023-03-01T06:21:03;31.45;;;15.38;;
26163;SDS011;13914;48.178;11.716;2023-03-01T06:23:30;27.25;;;15.13;;
26163;SDS011;13914;48.178;11.716;2023-03-01T06:30:49;28.33;;;14.38;;
26163;SDS011;13914;48.178;11.716;2023-03-01T06:33:16;32.58;;;14.95;;
26163;SDS011;13914;48.178;11.716;2023-03-01T06:35:45;28.52;;;14.80;;
26163;SDS011;13914;48.178;11.716;2023-03-01T06:38:12;28.67;;;15.70;;
26163;SDS011;13914;48.178;11.716;2023-03-01T06:40:40;26.92;;;13.73;;
26163;SDS011;13914;48.178;11.716;2023-03-01T06:43:06;30.38;;;16.25;;
26163;SDS011;13914;48.178;11.716;2023-03-01T06:45:32;31.40;;;13.57;;
26163;SDS011;13914;48.178;11.716;2023-03-01T06:48:05;30.67;;;16.15;;
26163;SDS011;13914;48.178;11.716;2023-03-01T06:50:32;27.30;;;14.95;;
26163;SDS011;13914;48.178;11.716;2023-03-01T06:52:59;27.63;;;15.18;;
26163;SDS011;13914;48.178;11.716;2023-03-01T06:55:25;31.75;;;15.43;;
26163;SDS011;13914;48.178;11.716;2023-03-01T06:57:57;27.02;;;14.57;;
26163;SDS011;13914;48.178;11.716;2023-03-01T07:00:25;36.13;;;16.13;;
26163;SDS011;13914;48.178;11.716;2023-03-01T07:02:52;20.75;;;10.10;;
26163;SDS011;13914;48.178;11.716;2023-03-01T07:07:44;27.63;;;15.48;;
26163;SDS011;13914;48.178;11.716;2023-03-01T07:10:10;32.90;;;15.65;;
26163;SDS011;13914;48.178;11.716;2023-03-01T07:19:56;29.50;;;14.70;;
26163;SDS011;13914;48.178;11.716;2023-03-01T07:22:22;26.77;;;13.95;;
26163;SDS011;13914;48.178;11.716;2023-03-01T07:24:48;30.67;;;15.30;;
26163;SDS011;13914;48.178;11.716;2023-03-01T07:27:13;36.67;;;16.73;;
26163;SDS011;13914;48.178;11.716;2023-03-01T07:29:39;33.15;;;16.02;;
26163;SDS011;13914;48.178;11.716;2023-03-01T07:32:05;31.98;;;15.85;;
26163;SDS011;13914;48.178;11.716;2023-03-01T07:36:58;31.67;;;14.65;;
26163;SDS011;13914;48.178;11.716;2023-03-01T07:39:24;31.80;;;15.63;;
26163;SDS011;13914;48.178;11.716;2023-03-01T07:41:50;30.80;;;15.93;;
26163;SDS011;13914;48.178;11.716;2023-03-01T07:49:08;30.35;;;15.13;;
26163;SDS011;13914;48.178;11.716;2023-03-01T07:51:34;32.67;;;15.70;;
26163;SDS011;13914;48.178;11.716;2023-03-01T07:54:00;32.88;;;16.40;;
26163;SDS011;13914;48.178;11.716;2023-03-01T07:56:26;37.08;;;16.13;;
26163;SDS011;13914;48.178;11.716;2023-03-01T07:58:52;35.83;;;16.98;;
26163;SDS011;13914;48.178;11.716;2023-03-01T08:01:18;34.28;;;15.43;;
26163;SDS011;13914;48.178;11.716;2023-03-01T08:03:46;31.98;;;15.52;;
26163;SDS011;13914;48.178;11.716;2023-03-01T08:08:40;36.47;;;16.50;;
26163;SDS011;13914;48.178;11.716;2023-03-01T08:11:06;33.50;;;16.77;;
26163;SDS011;13914;48.178;11.716;2023-03-01T08:13:35;31.30;;;17.60;;
26163;SDS011;13914;48.178;11.716;2023-03-01T08:16:02;37.28;;;17.83;;
26163;SDS011;13914;48.178;11.716;2023-03-01T08:18:33;30.52;;;15.02;;
26163;SDS011;13914;48.178;11.716;2023-03-01T08:21:03;31.00;;;16.10;;
26163;SDS011;13914;48.178;11.716;2023-03-01T08:23:34;33.65;;;17.23;;
26163;SDS011;13914;48.178;11.716;2023-03-01T08:26:07;34.42;;;16.75;;
26163;SDS011;13914;48.178;11.716;2023-03-01T08:28:39;33.10;;;17.02;;
26163;SDS011;13914;48.178;11.716;2023-03-01T08:31:13;34.50;;;16.45;;
26163;SDS011;13914;48.178;11.716;2023-03-01T08:33:50;31.35;;;16.88;;
26163;SDS011;13914;48.178;11.716;2023-03-01T08:36:25;31.83;;;16.33;;
26163;SDS011;13914;48.178;11.716;2023-03-01T08:38:57;36.17;;;16.58;;
26163;SDS011;13914;48.178;11.716;2023-03-01T08:41:23;36.05;;;17.13;;
26163;SDS011;13914;48.178;11.716;2023-03-01T08:43:49;35.30;;;17.27;;
26163;SDS011;13914;48.178;11.716;2023-03-01T08:46:15;35.05;;;18.15;;
26163;SDS011;13914;48.178;11.716;2023-03-01T08:48:41;36.33;;;17.48;;
26163;SDS011;13914;48.178;11.716;2023-03-01T08:51:11;30.75;;;16.35;;
26163;SDS011;13914;48.178;11.716;2023-03-01T08:53:40;37.95;;;17.95;;
26163;SDS011;13914;48.178;11.716;2023-03-01T08:58:32;36.88;;;17.85;;
26163;SDS011;13914;48.178;11.716;2023-03-01T09:00:58;32.50;;;16.77;;
26163;SDS011;13914;48.178;11.716;2023-03-01T09:03:24;32.08;;;16.55;;
26163;SDS011;13914;48.178;11.716;2023-03-01T09:05:51;35.88;;;16.65;;
26163;SDS011;13914;48.178;11.716;2023-03-01T09:08:17;34.17;;;16.40;;
26163;SDS011;13914;48.178;11.716;2023-03-01T09:10:45;32.38;;;16.42;;
26163;SDS011;13914;48.178;11.716;2023-03-01T09:13:11;33.60;;;16.73;;
26163;SDS011;13914;48.178;11.716;2023-03-01T09:15:37;33.47;;;17.27;;
26163;SDS011;13914;48.178;11.716;2023-03-01T09:18:03;32.22;;;16.25;;
26163;SDS011;13914;48.178;11.716;2023-03-01T09:20:30;36.00;;;18.33;;
26163;SDS011;13914;48.178;11.716;2023-03-01T09:22:57;35.67;;;18.33;;
26163;SDS011;13914;48.178;11.716;2023-03-01T09:25:23;35.58;;;17.63;;
26163;SDS011;13914;48.178;11.716;2023-03-01T09:27:52;26.52;;;13.77;;
26163;SDS011;13914;48.178;11.716;2023-03-01T09:30:19;37.58;;;19.20;;
26163;SDS011;13914;48.178;11.716;2023-03-01T09:35:11;34.42;;;16.35;;
26163;SDS011;13914;48.178;11.716;2023-03-01T09:37:38;36.00;;;17.40;;
26163;SDS011;13914;48.178;11.716;2023-03-01T09:40:12;34.10;;;16.40;;
26163;SDS011;13914;48.178;11.716;2023-03-01T09:42:51;34.50;;;18.88;;
26163;SDS011;13914;48.178;11.716;2023-03-01T09:48:03;34.00;;;16.02;;
26163;SDS011;13914;48.178;11.716;2023-03-01T09:50:39;36.25;;;16.67;;
26163;SDS011;13914;48.178;11.716;2023-03-01T09:53:16;38.40;;;18.40;;
26163;SDS011;13914;48.178;11.716;2023-03-01T10:01:44;36.47;;;17.90;;
26163;SDS011;13914;48.178;11.716;2023-03-01T10:04:27;31.60;;;17.38;;
26163;SDS011;13914;48.178;11.716;2023-03-01T10:06:58;33.40;;;17.33;;
26163;SDS011;13914;48.178;11.716;2023-03-01T10:09:35;32.53;;;18.83;;
26163;SDS011;13914;48.178;11.716;2023-03-01T10:12:11;35.25;;;19.60;;
26163;SDS011;13914;48.178;11.716;2023-03-01T10:14:50;32.50;;;16.88;;
26163;SDS011;13914;48.178;11.716;2023-03-01T10:20:24;34.50;;;18.50;;
26163;SDS011;13914;48.178;11.716;2023-03-01T10:22:53;39.05;;;19.92;;
26163;SDS011;13914;48.178;11.716;2023-03-01T10:31:38;42.13;;;21.23;;
26163;SDS011;13914;48.178;11.716;2023-03-01T10:34:19;37.03;;;18.88;;
26163;SDS011;13914;48.178;11.716;2023-03-01T10:36:52;37.72;;;19.67;;
26163;SDS011;13914;48.178;11.716;2023-03-01T10:39:56;34.97;;;17.13;;
26163;SDS011;13914;48.178;11.716;2023-03-01T10:42:40;39.00;;;18.80;;
26163;SDS011;13914;48.178;11.716;2023-03-01T10:48:13;40.58;;;19.15;;
26163;SDS011;13914;48.178;11.716;2023-03-01T10:50:49;39.30;;;17.98;;
26163;SDS011;13914;48.178;11.716;2023-03-01T10:53:42;36.70;;;20.35;;
26163;SDS011;13914;48.178;11.716;2023-03-01T10:56:14;37.10;;;17.90;;
26163;SDS011;13914;48.178;11.716;2023-03-01T10:58:41;36.17;;;20.10;;
26163;SDS011;13914;48.178;11.716;2023-03-01T11:06:30;34.38;;;18.63;;
26163;SDS011;13914;48.178;11.716;2023-03-01T11:08:56;35.42;;;19.55;;
26163;SDS011;13914;48.178;11.716;2023-03-01T11:11:42;35.08;;;19.90;;
26163;SDS011;13914;48.178;11.716;2023-03-01T11:14:18;36.25;;;19.45;;
26163;SDS011;13914;48.178;11.716;2023-03-01T11:17:03;36.20;;;18.45;;
26163;SDS011;13914;48.178;11.716;2023-03-01T11:19:59;37.00;;;18.98;;
26163;SDS011;13914;48.178;11.716;2023-03-01T11:22:51;29.17;;;14.30;;
26163;SDS011;13914;48.178;11.716;2023-03-01T11:25:23;35.38;;;19.42;;
26163;SDS011;13914;48.178;11.716;2023-03-01T11:27:52;36.35;;;18.55;;
26163;SDS011;13914;48.178;11.716;2023-03-01T11:33:15;36.70;;;19.98;;
26163;SDS011;13914;48.178;11.716;2023-03-01T11:36:03;35.38;;;19.40;;
26163;SDS011;13914;48.178;11.716;2023-03-01T11:38:38;34.85;;;18.40;;
26163;SDS011;13914;48.178;11.716;2023-03-01T11:43:52;34.10;;;17.40;;
26163;SDS011;13914;48.178;11.716;2023-03-01T11:49:15;34.65;;;19.25;;
26163;SDS011;13914;48.178;11.716;2023-03-01T12:14:48;36.70;;;19.95;;
26163;SDS011;13914;48.178;11.716;2023-03-01T12:18:12;38.20;;;20.05;;
26163;SDS011;13914;48.178;11.716;2023-03-01T12:26:56;36.65;;;20.50;;
26163;SDS011;13914;48.178;11.716;2023-03-01T12:32:42;39.53;;;20.08;;
26163;SDS011;13914;48.178;11.716;2023-03-01T12:38:02;36.58;;;20.95;;
26163;SDS011;13914;48.178;11.716;2023-03-01T12:49:54;34.85;;;19.55;;
26163;SDS011;13914;48.178;11.716;2023-03-01T12:55:18;34.45;;;19.27;;
26163;SDS011;13914;48.178;11.716;2023-03-01T13:18:03;21.30;;;10.98;;
26163;SDS011;13914;48.178;11.716;2023-03-01T13:20:52;35.35;;;20.35;;
26163;SDS011;13914;48.178;11.716;2023-03-01T13:23:35;35.10;;;20.08;;
26163;SDS011;13914;48.178;11.716;2023-03-01T13:28:55;32.88;;;16.90;;
26163;SDS011;13914;48.178;11.716;2023-03-01T13:33:52;33.13;;;19.13;;
26163;SDS011;13914;48.178;11.716;2023-03-01T13:49:53;29.02;;;17.48;;
26163;SDS011;13914;48.178;11.716;2023-03-01T13:54:59;30.48;;;17.73;;
26163;SDS011;13914;48.178;11.716;2023-03-01T13:57:30;35.00;;;19.15;;
26163;SDS011;13914;48.178;11.716;2023-03-01T13:59:59;37.38;;;18.98;;
26163;SDS011;13914;48.178;11.716;2023-03-01T14:02:25;31.20;;;18.50;;
26163;SDS011;13914;48.178;11.716;2023-03-01T14:05:00;31.52;;;18.15;;
26163;SDS011;13914;48.178;11.716;2023-03-01T14:07:27;29.90;;;18.73;;
26163;SDS011;13914;48.178;11.716;2023-03-01T14:09:58;29.25;;;18.33;;
26163;SDS011;13914;48.178;11.716;2023-03-01T14:15:19;28.15;;;17.17;;
26163;SDS011;13914;48.178;11.716;2023-03-01T14:18:00;28.85;;;17.52;;
26163;SDS011;13914;48.178;11.716;2023-03-01T14:20:42;33.25;;;17.70;;
26163;SDS011;13914;48.178;11.716;2023-03-01T14:23:17;28.65;;;17.25;;
26163;SDS011;13914;48.178;11.716;2023-03-01T14:28:17;28.60;;;15.95;;
26163;SDS011;13914;48.178;11.716;2023-03-01T14:30:52;30.42;;;17.83;;
26163;SDS011;13914;48.178;11.716;2023-03-01T14:33:25;24.88;;;14.43;;
26163;SDS011;13914;48.178;11.716;2023-03-01T14:35:59;27.50;;;16.52;;
26163;SDS011;13914;48.178;11.716;2023-03-01T14:38:39;27.92;;;15.68;;
26163;SDS011;13914;48.178;11.716;2023-03-01T14:41:43;28.05;;;17.35;;
26163;SDS011;13914;48.178;11.716;2023-03-01T14:44:06;29.30;;;16.73;;
26163;SDS011;13914;48.178;11.716;2023-03-01T14:46:40;27.95;;;16.88;;
26163;SDS011;13914;48.178;11.716;2023-03-01T14:51:46;28.45;;;16.90;;
26163;SDS011;13914;48.178;11.716;2023-03-01T14:57:24;27.85;;;15.55;;
26163;SDS011;13914;48.178;11.716;2023-03-01T14:59:52;27.30;;;15.43;;
26163;SDS011;13914;48.178;11.716;2023-03-01T15:02:21;30.80;;;16.33;;
26163;SDS011;13914;48.178;11.716;2023-03-01T15:04:55;28.55;;;15.88;;
26163;SDS011;13914;48.178;11.716;2023-03-01T15:07:24;27.85;;;15.90;;
26163;SDS011;13914;48.178;11.716;2023-03-01T15:09:59;32.13;;;15.68;;
26163;SDS011;13914;48.178;11.716;2023-03-01T15:14:54;26.35;;;15.60;;
26163;SDS011;13914;48.178;11.716;2023-03-01T15:17:35;26.10;;;14.85;;
26163;SDS011;13914;48.178;11.716;2023-03-01T15:20:06;27.77;;;14.90;;
26163;SDS011;13914;48.178;11.716;2023-03-01T15:22:46;27.20;;;15.18;;
26163;SDS011;13914;48.178;11.716;2023-03-01T15:25:16;25.27;;;14.68;;
26163;SDS011;13914;48.178;11.716;2023-03-01T15:27:45;24.33;;;14.45;;
26163;SDS011;13914;48.178;11.716;2023-03-01T15:35:44;24.40;;;12.38;;
26163;SDS011;13914;48.178;11.716;2023-03-01T15:38:26;27.30;;;14.85;;
26163;SDS011;13914;48.178;11.716;2023-03-01T15:40:52;21.50;;;11.25;;
26163;SDS011;13914;48.178;11.716;2023-03-01T15:48:48;26.60;;;15.90;;
26163;SDS011;13914;48.178;11.716;2023-03-01T15:51:27;24.25;;;14.00;;
26163;SDS011;13914;48.178;11.716;2023-03-01T15:53:59;26.88;;;15.10;;
26163;SDS011;13914;48.178;11.716;2023-03-01T15:56:35;22.67;;;13.55;;
26163;SDS011;13914;48.178;11.716;2023-03-01T15:59:01;23.98;;;14.68;;
26163;SDS011;13914;48.178;11.716;2023-03-01T16:06:21;26.00;;;13.20;;
26163;SDS011;13914;48.178;11.716;2023-03-01T16:08:47;25.23;;;14.05;;
26163;SDS011;13914;48.178;11.716;2023-03-01T16:11:17;16.30;;;9.10;;
26163;SDS011;13914;48.178;11.716;2023-03-01T16:13:44;25.42;;;13.90;;
26163;SDS011;13914;48.178;11.716;2023-03-01T16:16:11;25.92;;;14.73;;
26163;SDS011;13914;48.178;11.716;2023-03-01T16:18:41;23.40;;;13.65;;
26163;SDS011;13914;48.178;11.716;2023-03-01T16:21:12;26.13;;;14.32;;
26163;SDS011;13914;48.178;11.716;2023-03-01T16:23:46;23.10;;;13.02;;
26163;SDS011;13914;48.178;11.716;2023-03-01T16:26:12;24.70;;;13.75;;
26163;SDS011;13914;48.178;11.716;2023-03-01T16:28:39;22.00;;;13.40;;
26163;SDS011;13914;48.178;11.716;2023-03-01T16:31:09;25.25;;;13.25;;
26163;SDS011;13914;48.178;11.716;2023-03-01T16:36:09;23.60;;;12.68;;
26163;SDS011;13914;48.178;11.716;2023-03-01T16:38:37;24.08;;;11.25;;
26163;SDS011;13914;48.178;11.716;2023-03-01T16:41:03;25.45;;;12.75;;
26163;SDS011;13914;48.178;11.716;2023-03-01T16:43:30;24.48;;;12.88;;
26163;SDS011;13914;48.178;11.716;2023-03-01T16:45:56;20.75;;;12.20;;
26163;SDS011;13914;48.178;11.716;2023-03-01T16:48:23;22.70;;;12.27;;
26163;SDS011;13914;48.178;11.716;2023-03-01T16:50:57;23.67;;;11.52;;
26163;SDS011;13914;48.178;11.716;2023-03-01T16:53:25;21.17;;;12.20;;
26163;SDS011;13914;48.178;11.716;2023-03-01T16:55:54;20.70;;;11.98;;
26163;SDS011;13914;48.178;11.716;2023-03-01T16:58:22;20.55;;;11.38;;
26163;SDS011;13914;48.178;11.716;2023-03-01T17:00:50;24.98;;;12.15;;
26163;SDS011;13914;48.178;11.716;2023-03-01T17:03:18;19.70;;;11.38;;
26163;SDS011;13914;48.178;11.716;2023-03-01T17:05:48;26.75;;;11.57;;
26163;SDS011;13914;48.178;11.716;2023-03-01T17:08:14;18.60;;;10.90;;
26163;SDS011;13914;48.178;11.716;2023-03-01T17:10:41;19.63;;;10.70;;
26163;SDS011;13914;48.178;11.716;2023-03-01T17:13:10;18.98;;;10.02;;
26163;SDS011;13914;48.178;11.716;2023-03-01T17:15:40;19.48;;;10.00;;
26163;SDS011;13914;48.178;11.716;2023-03-01T17:18:06;20.10;;;10.65;;
26163;SDS011;13914;48.178;11.716;2023-03-01T17:20:33;23.65;;;11.07;;
26163;SDS011;13914;48.178;11.716;2023-03-01T17:27:52;17.40;;;9.20;;
26163;SDS011;13914;48.178;11.716;2023-03-01T17:30:17;20.27;;;8.87;;
26163;SDS011;13914;48.178;11.716;2023-03-01T17:32:43;19.65;;;9.43;;
26163;SDS011;13914;48.178;11.716;2023-03-01T17:35:09;18.10;;;9.75;;
26163;SDS011;13914;48.178;11.716;2023-03-01T17:37:36;19.10;;;9.68;;
26163;SDS011;13914;48.178;11.716;2023-03-01T17:40:04;18.92;;;10.02;;
26163;SDS011;13914;48.178;11.716;2023-03-01T17:42:31;19.67;;;9.40;;
26163;SDS011;13914;48.178;11.716;2023-03-01T17:44:57;18.85;;;9.68;;
26163;SDS011;13914;48.178;11.716;2023-03-01T17:47:24;17.75;;;9.43;;
26163;SDS011;13914;48.178;11.716;2023-03-01T17:49:50;17.80;;;9.73;;
26163;SDS011;13914;48.178;11.716;2023-03-01T17:52:16;28.38;;;8.98;;